sensor_id;sensor_type;location;lat;lon;timestamp;P1;durP1;ratioP1;P2;durP2;ratioP2
41755;SDS011;27435;48.480;9.258;2023-04-24T00:01:39;1.47;;;0.50;;
41755;SDS011;27435;48.480;9.258;2023-04-24T00:04:05;2.23;;;0.70;;
41755;SDS011;27435;48.480;9.258;2023-04-24T00:06:32;2.93;;;0.67;;
41755;SDS011;27435;48.480;9.258;2023-04-24T00:08:59;0.63;;;0.40;;
41755;SDS011;27435;48.480;9.258;2023-04-24T00:11:26;2.33;;;0.40;;
41755;SDS011;27435;48.480;9.258;2023-04-24T00:13:52;1.30;;;0.40;;
41755;SDS011;27435;48.480;9.258;2023-04-24T00:16:17;2.77;;;0.40;;
41755;SDS011;27435;48.480;9.258;2023-04-24T00:18:43;4.90;;;0.43;;
41755;SDS011;27435;48.480;9.258;2023-04-24T00:21:10;0.80;;;0.27;;
41755;SDS011;27435;48.480;9.258;2023-04-24T00:23:35;4.80;;;0.50;;
41755;SDS011;27435;48.480;9.258;2023-04-24T00:26:01;1.90;;;0.40;;
41755;SDS011;27435;48.480;9.258;2023-04-24T00:28:27;2.27;;;0.20;;
41755;SDS011;27435;48.480;9.258;2023-04-24T00:30:52;1.53;;;0.40;;
41755;SDS011;27435;48.480;9.258;2023-04-24T00:33:18;2.67;;;0.40;;
41755;SDS011;27435;48.480;9.258;2023-04-24T00:35:44;0.80;;;0.30;;
41755;SDS011;27435;48.480;9.258;2023-04-24T00:38:10;0.60;;;0.37;;
41755;SDS011;27435;48.480;9.258;2023-04-24T00:40:35;1.20;;;0.30;;
41755;SDS011;27435;48.480;9.258;2023-04-24T00:43:01;2.33;;;0.40;;
41755;SDS011;27435;48.480;9.258;2023-04-24T00:45:27;1.70;;;0.50;;
41755;SDS011;27435;48.480;9.258;2023-04-24T00:47:53;1.37;;;0.40;;
41755;SDS011;27435;48.480;9.258;2023-04-24T00:50:18;1.23;;;0.40;;
41755;SDS011;27435;48.480;9.258;2023-04-24T00:52:46;1.10;;;0.50;;
41755;SDS011;27435;48.480;9.258;2023-04-24T00:55:12;1.53;;;0.53;;
41755;SDS011;27435;48.480;9.258;2023-04-24T00:57:38;0.90;;;0.30;;
41755;SDS011;27435;48.480;9.258;2023-04-24T01:00:05;2.73;;;0.37;;
41755;SDS011;27435;48.480;9.258;2023-04-24T01:02:35;1.77;;;0.50;;
41755;SDS011;27435;48.480;9.258;2023-04-24T01:05:05;1.60;;;0.50;;
41755;SDS011;27435;48.480;9.258;2023-04-24T01:07:34;6.13;;;0.40;;
41755;SDS011;27435;48.480;9.258;2023-04-24T01:10:00;1.13;;;0.47;;
41755;SDS011;27435;48.480;9.258;2023-04-24T01:12:26;0.97;;;0.37;;
41755;SDS011;27435;48.480;9.258;2023-04-24T01:14:52;2.80;;;0.60;;
41755;SDS011;27435;48.480;9.258;2023-04-24T01:17:17;5.60;;;0.60;;
41755;SDS011;27435;48.480;9.258;2023-04-24T01:19:43;1.50;;;0.50;;
41755;SDS011;27435;48.480;9.258;2023-04-24T01:22:16;3.10;;;0.60;;
41755;SDS011;27435;48.480;9.258;2023-04-24T01:24:42;1.40;;;0.40;;
41755;SDS011;27435;48.480;9.258;2023-04-24T01:27:09;3.53;;;0.50;;
41755;SDS011;27435;48.480;9.258;2023-04-24T01:29:36;2.33;;;0.50;;
41755;SDS011;27435;48.480;9.258;2023-04-24T01:32:03;2.93;;;0.70;;
41755;SDS011;27435;48.480;9.258;2023-04-24T01:34:29;1.97;;;0.60;;
41755;SDS011;27435;48.480;9.258;2023-04-24T01:36:55;1.93;;;0.60;;
41755;SDS011;27435;48.480;9.258;2023-04-24T01:39:21;1.50;;;0.70;;
41755;SDS011;27435;48.480;9.258;2023-04-24T01:41:48;2.73;;;0.60;;
41755;SDS011;27435;48.480;9.258;2023-04-24T01:44:15;2.20;;;0.70;;
41755;SDS011;27435;48.480;9.258;2023-04-24T01:46:41;3.97;;;0.80;;
41755;SDS011;27435;48.480;9.258;2023-04-24T01:49:07;1.57;;;0.60;;
41755;SDS011;27435;48.480;9.258;2023-04-24T01:51:32;3.67;;;0.60;;
41755;SDS011;27435;48.480;9.258;2023-04-24T01:53:58;1.43;;;0.70;;
41755;SDS011;27435;48.480;9.258;2023-04-24T01:56:24;0.80;;;0.40;;
41755;SDS011;27435;48.480;9.258;2023-04-24T01:58:50;3.60;;;0.80;;
41755;SDS011;27435;48.480;9.258;2023-04-24T02:01:19;2.13;;;0.47;;
41755;SDS011;27435;48.480;9.258;2023-04-24T02:03:45;3.73;;;0.70;;
41755;SDS011;27435;48.480;9.258;2023-04-24T02:06:10;2.90;;;0.90;;
41755;SDS011;27435;48.480;9.258;2023-04-24T02:08:36;2.20;;;0.60;;
41755;SDS011;27435;48.480;9.258;2023-04-24T02:11:02;2.73;;;0.70;;
41755;SDS011;27435;48.480;9.258;2023-04-24T02:13:28;1.57;;;0.53;;
41755;SDS011;27435;48.480;9.258;2023-04-24T02:15:53;2.60;;;0.70;;
41755;SDS011;27435;48.480;9.258;2023-04-24T02:18:19;1.47;;;0.60;;
41755;SDS011;27435;48.480;9.258;2023-04-24T02:20:45;1.83;;;0.73;;
41755;SDS011;27435;48.480;9.258;2023-04-24T02:23:11;1.87;;;0.50;;
41755;SDS011;27435;48.480;9.258;2023-04-24T02:25:38;3.47;;;0.70;;
41755;SDS011;27435;48.480;9.258;2023-04-24T02:28:03;1.67;;;0.60;;
41755;SDS011;27435;48.480;9.258;2023-04-24T02:30:29;1.43;;;0.60;;
41755;SDS011;27435;48.480;9.258;2023-04-24T02:32:55;1.73;;;0.60;;
41755;SDS011;27435;48.480;9.258;2023-04-24T02:35:21;1.97;;;0.60;;
41755;SDS011;27435;48.480;9.258;2023-04-24T02:37:46;2.10;;;0.60;;
41755;SDS011;27435;48.480;9.258;2023-04-24T02:40:12;2.87;;;0.83;;
41755;SDS011;27435;48.480;9.258;2023-04-24T02:42:38;1.83;;;0.50;;
41755;SDS011;27435;48.480;9.258;2023-04-24T02:45:03;1.73;;;0.73;;
41755;SDS011;27435;48.480;9.258;2023-04-24T02:47:30;2.07;;;0.70;;
41755;SDS011;27435;48.480;9.258;2023-04-24T02:49:55;1.80;;;0.60;;
41755;SDS011;27435;48.480;9.258;2023-04-24T02:52:21;1.97;;;0.60;;
41755;SDS011;27435;48.480;9.258;2023-04-24T02:54:47;0.97;;;0.63;;
41755;SDS011;27435;48.480;9.258;2023-04-24T02:57:12;1.93;;;0.70;;
41755;SDS011;27435;48.480;9.258;2023-04-24T02:59:38;2.90;;;0.73;;
41755;SDS011;27435;48.480;9.258;2023-04-24T03:02:03;2.57;;;0.60;;
41755;SDS011;27435;48.480;9.258;2023-04-24T03:04:29;2.30;;;0.80;;
41755;SDS011;27435;48.480;9.258;2023-04-24T03:06:55;1.70;;;0.53;;
41755;SDS011;27435;48.480;9.258;2023-04-24T03:09:21;1.70;;;0.50;;
41755;SDS011;27435;48.480;9.258;2023-04-24T03:11:47;1.40;;;0.70;;
41755;SDS011;27435;48.480;9.258;2023-04-24T03:14:14;3.70;;;0.80;;
41755;SDS011;27435;48.480;9.258;2023-04-24T03:16:40;1.57;;;0.60;;
41755;SDS011;27435;48.480;9.258;2023-04-24T03:19:06;4.17;;;0.90;;
41755;SDS011;27435;48.480;9.258;2023-04-24T03:21:32;4.30;;;0.93;;
41755;SDS011;27435;48.480;9.258;2023-04-24T03:23:58;1.70;;;0.60;;
41755;SDS011;27435;48.480;9.258;2023-04-24T03:26:23;2.60;;;0.80;;
41755;SDS011;27435;48.480;9.258;2023-04-24T03:28:49;4.17;;;0.70;;
41755;SDS011;27435;48.480;9.258;2023-04-24T03:31:15;2.07;;;0.80;;
41755;SDS011;27435;48.480;9.258;2023-04-24T03:33:41;2.40;;;0.50;;
41755;SDS011;27435;48.480;9.258;2023-04-24T03:36:07;0.60;;;0.30;;
41755;SDS011;27435;48.480;9.258;2023-04-24T03:38:33;1.73;;;0.50;;
41755;SDS011;27435;48.480;9.258;2023-04-24T03:40:58;1.13;;;0.60;;
41755;SDS011;27435;48.480;9.258;2023-04-24T03:43:24;4.57;;;0.53;;
41755;SDS011;27435;48.480;9.258;2023-04-24T03:45:49;1.93;;;0.50;;
41755;SDS011;27435;48.480;9.258;2023-04-24T03:48:15;2.17;;;0.37;;
41755;SDS011;27435;48.480;9.258;2023-04-24T03:50:41;1.23;;;0.50;;
41755;SDS011;27435;48.480;9.258;2023-04-24T03:53:07;2.50;;;0.70;;
41755;SDS011;27435;48.480;9.258;2023-04-24T03:55:33;1.20;;;0.43;;
41755;SDS011;27435;48.480;9.258;2023-04-24T03:57:58;1.20;;;0.50;;
41755;SDS011;27435;48.480;9.258;2023-04-24T04:00:24;3.17;;;0.60;;
41755;SDS011;27435;48.480;9.258;2023-04-24T04:02:51;1.80;;;0.70;;
41755;SDS011;27435;48.480;9.258;2023-04-24T04:05:16;4.30;;;1.00;;
41755;SDS011;27435;48.480;9.258;2023-04-24T04:07:42;4.10;;;0.90;;
41755;SDS011;27435;48.480;9.258;2023-04-24T04:10:07;5.30;;;0.80;;
41755;SDS011;27435;48.480;9.258;2023-04-24T04:12:33;1.33;;;0.67;;
41755;SDS011;27435;48.480;9.258;2023-04-24T04:14:59;1.33;;;0.60;;
41755;SDS011;27435;48.480;9.258;2023-04-24T04:17:25;2.67;;;0.80;;
41755;SDS011;27435;48.480;9.258;2023-04-24T04:19:50;1.77;;;0.60;;
41755;SDS011;27435;48.480;9.258;2023-04-24T04:22:16;4.10;;;1.07;;
41755;SDS011;27435;48.480;9.258;2023-04-24T04:24:41;2.47;;;0.90;;
41755;SDS011;27435;48.480;9.258;2023-04-24T04:27:08;2.20;;;0.80;;
41755;SDS011;27435;48.480;9.258;2023-04-24T04:29:33;1.87;;;0.50;;
41755;SDS011;27435;48.480;9.258;2023-04-24T04:31:59;4.83;;;1.00;;
41755;SDS011;27435;48.480;9.258;2023-04-24T04:34:26;4.43;;;1.10;;
41755;SDS011;27435;48.480;9.258;2023-04-24T04:36:51;4.10;;;0.90;;
41755;SDS011;27435;48.480;9.258;2023-04-24T04:39:17;3.53;;;1.20;;
41755;SDS011;27435;48.480;9.258;2023-04-24T04:41:43;3.13;;;0.70;;
41755;SDS011;27435;48.480;9.258;2023-04-24T04:44:14;2.77;;;1.10;;
41755;SDS011;27435;48.480;9.258;2023-04-24T04:46:40;3.23;;;0.83;;
41755;SDS011;27435;48.480;9.258;2023-04-24T04:49:06;1.87;;;0.70;;
41755;SDS011;27435;48.480;9.258;2023-04-24T04:51:33;1.93;;;0.67;;
41755;SDS011;27435;48.480;9.258;2023-04-24T04:53:59;3.37;;;0.80;;
41755;SDS011;27435;48.480;9.258;2023-04-24T04:56:25;4.03;;;0.80;;
41755;SDS011;27435;48.480;9.258;2023-04-24T04:58:51;5.20;;;0.60;;
41755;SDS011;27435;48.480;9.258;2023-04-24T05:01:16;1.53;;;0.53;;
41755;SDS011;27435;48.480;9.258;2023-04-24T05:03:42;1.90;;;0.90;;
41755;SDS011;27435;48.480;9.258;2023-04-24T05:06:08;4.70;;;1.13;;
41755;SDS011;27435;48.480;9.258;2023-04-24T05:08:34;3.27;;;1.50;;
41755;SDS011;27435;48.480;9.258;2023-04-24T05:10:59;6.10;;;1.67;;
41755;SDS011;27435;48.480;9.258;2023-04-24T05:13:25;4.57;;;1.60;;
41755;SDS011;27435;48.480;9.258;2023-04-24T05:15:51;6.00;;;1.57;;
41755;SDS011;27435;48.480;9.258;2023-04-24T05:18:16;3.60;;;1.50;;
41755;SDS011;27435;48.480;9.258;2023-04-24T05:20:42;4.30;;;1.60;;
41755;SDS011;27435;48.480;9.258;2023-04-24T05:23:09;3.03;;;1.30;;
41755;SDS011;27435;48.480;9.258;2023-04-24T05:25:35;2.47;;;1.10;;
41755;SDS011;27435;48.480;9.258;2023-04-24T05:28:01;2.60;;;1.63;;
41755;SDS011;27435;48.480;9.258;2023-04-24T05:30:27;2.30;;;1.30;;
41755;SDS011;27435;48.480;9.258;2023-04-24T05:32:53;3.47;;;1.50;;
41755;SDS011;27435;48.480;9.258;2023-04-24T05:35:18;2.40;;;1.40;;
41755;SDS011;27435;48.480;9.258;2023-04-24T05:37:44;2.47;;;1.43;;
41755;SDS011;27435;48.480;9.258;2023-04-24T05:40:10;2.57;;;1.37;;
41755;SDS011;27435;48.480;9.258;2023-04-24T05:42:37;6.13;;;1.80;;
41755;SDS011;27435;48.480;9.258;2023-04-24T05:45:02;3.80;;;1.60;;
41755;SDS011;27435;48.480;9.258;2023-04-24T05:47:29;8.47;;;1.90;;
41755;SDS011;27435;48.480;9.258;2023-04-24T05:49:54;4.00;;;1.40;;
41755;SDS011;27435;48.480;9.258;2023-04-24T05:52:20;3.63;;;1.50;;
41755;SDS011;27435;48.480;9.258;2023-04-24T05:54:46;2.67;;;1.57;;
41755;SDS011;27435;48.480;9.258;2023-04-24T05:57:13;3.87;;;1.90;;
41755;SDS011;27435;48.480;9.258;2023-04-24T05:59:38;3.63;;;2.07;;
41755;SDS011;27435;48.480;9.258;2023-04-24T06:02:04;3.47;;;1.40;;
41755;SDS011;27435;48.480;9.258;2023-04-24T06:04:30;2.83;;;1.40;;
41755;SDS011;27435;48.480;9.258;2023-04-24T06:06:56;3.40;;;1.70;;
41755;SDS011;27435;48.480;9.258;2023-04-24T06:09:22;5.77;;;2.13;;
41755;SDS011;27435;48.480;9.258;2023-04-24T06:11:48;3.23;;;1.57;;
41755;SDS011;27435;48.480;9.258;2023-04-24T06:14:14;3.47;;;2.20;;
41755;SDS011;27435;48.480;9.258;2023-04-24T06:16:41;4.33;;;1.47;;
41755;SDS011;27435;48.480;9.258;2023-04-24T06:19:07;3.13;;;1.63;;
41755;SDS011;27435;48.480;9.258;2023-04-24T06:21:33;3.33;;;1.60;;
41755;SDS011;27435;48.480;9.258;2023-04-24T06:23:58;1.73;;;1.13;;
41755;SDS011;27435;48.480;9.258;2023-04-24T06:26:24;2.30;;;1.33;;
41755;SDS011;27435;48.480;9.258;2023-04-24T06:28:51;4.37;;;1.50;;
41755;SDS011;27435;48.480;9.258;2023-04-24T06:31:18;3.57;;;1.30;;
41755;SDS011;27435;48.480;9.258;2023-04-24T06:33:45;2.63;;;1.50;;
41755;SDS011;27435;48.480;9.258;2023-04-24T06:36:11;3.57;;;1.00;;
41755;SDS011;27435;48.480;9.258;2023-04-24T06:38:37;3.87;;;1.10;;
41755;SDS011;27435;48.480;9.258;2023-04-24T06:41:03;3.60;;;1.40;;
41755;SDS011;27435;48.480;9.258;2023-04-24T06:43:30;3.37;;;1.00;;
41755;SDS011;27435;48.480;9.258;2023-04-24T06:45:59;2.53;;;0.90;;
41755;SDS011;27435;48.480;9.258;2023-04-24T06:48:25;2.33;;;1.20;;
41755;SDS011;27435;48.480;9.258;2023-04-24T06:50:52;1.63;;;0.97;;
41755;SDS011;27435;48.480;9.258;2023-04-24T06:53:17;5.13;;;1.70;;
41755;SDS011;27435;48.480;9.258;2023-04-24T06:55:43;2.80;;;1.27;;
41755;SDS011;27435;48.480;9.258;2023-04-24T06:58:11;3.60;;;1.27;;
41755;SDS011;27435;48.480;9.258;2023-04-24T07:00:37;2.33;;;1.20;;
41755;SDS011;27435;48.480;9.258;2023-04-24T07:03:03;2.37;;;1.33;;
41755;SDS011;27435;48.480;9.258;2023-04-24T07:05:31;4.70;;;1.60;;
41755;SDS011;27435;48.480;9.258;2023-04-24T07:08:00;3.03;;;1.33;;
41755;SDS011;27435;48.480;9.258;2023-04-24T07:10:26;2.70;;;1.63;;
41755;SDS011;27435;48.480;9.258;2023-04-24T07:12:53;2.20;;;1.10;;
41755;SDS011;27435;48.480;9.258;2023-04-24T07:15:19;4.00;;;1.70;;
41755;SDS011;27435;48.480;9.258;2023-04-24T07:17:45;3.43;;;1.43;;
41755;SDS011;27435;48.480;9.258;2023-04-24T07:20:11;5.40;;;1.50;;
41755;SDS011;27435;48.480;9.258;2023-04-24T07:22:39;3.80;;;1.20;;
41755;SDS011;27435;48.480;9.258;2023-04-24T07:25:05;3.67;;;1.27;;
41755;SDS011;27435;48.480;9.258;2023-04-24T07:27:31;3.80;;;1.20;;
41755;SDS011;27435;48.480;9.258;2023-04-24T07:29:57;2.73;;;1.10;;
41755;SDS011;27435;48.480;9.258;2023-04-24T07:32:23;2.13;;;1.20;;
41755;SDS011;27435;48.480;9.258;2023-04-24T07:34:49;2.70;;;1.30;;
41755;SDS011;27435;48.480;9.258;2023-04-24T07:37:14;6.13;;;1.87;;
41755;SDS011;27435;48.480;9.258;2023-04-24T07:39:40;3.20;;;1.53;;
41755;SDS011;27435;48.480;9.258;2023-04-24T07:42:06;4.30;;;1.90;;
41755;SDS011;27435;48.480;9.258;2023-04-24T07:44:31;3.43;;;1.70;;
41755;SDS011;27435;48.480;9.258;2023-04-24T07:46:57;3.47;;;1.90;;
41755;SDS011;27435;48.480;9.258;2023-04-24T07:49:22;10.63;;;3.40;;
41755;SDS011;27435;48.480;9.258;2023-04-24T07:51:49;5.17;;;2.90;;
41755;SDS011;27435;48.480;9.258;2023-04-24T07:54:14;5.33;;;2.60;;
41755;SDS011;27435;48.480;9.258;2023-04-24T07:56:40;3.50;;;2.00;;
41755;SDS011;27435;48.480;9.258;2023-04-24T07:59:07;5.23;;;1.93;;
41755;SDS011;27435;48.480;9.258;2023-04-24T08:01:35;2.23;;;1.33;;
41755;SDS011;27435;48.480;9.258;2023-04-24T08:04:00;2.73;;;1.10;;
41755;SDS011;27435;48.480;9.258;2023-04-24T08:06:26;3.90;;;1.20;;
41755;SDS011;27435;48.480;9.258;2023-04-24T08:08:56;4.87;;;1.47;;
41755;SDS011;27435;48.480;9.258;2023-04-24T08:11:23;2.57;;;1.07;;
41755;SDS011;27435;48.480;9.258;2023-04-24T08:13:49;2.50;;;0.97;;
41755;SDS011;27435;48.480;9.258;2023-04-24T08:16:15;3.70;;;1.13;;
41755;SDS011;27435;48.480;9.258;2023-04-24T08:18:40;2.50;;;0.90;;
41755;SDS011;27435;48.480;9.258;2023-04-24T08:21:06;2.00;;;1.23;;
41755;SDS011;27435;48.480;9.258;2023-04-24T08:23:31;2.00;;;1.10;;
41755;SDS011;27435;48.480;9.258;2023-04-24T08:25:57;1.60;;;0.70;;
41755;SDS011;27435;48.480;9.258;2023-04-24T08:28:23;2.03;;;0.90;;
41755;SDS011;27435;48.480;9.258;2023-04-24T08:30:48;3.33;;;1.03;;
41755;SDS011;27435;48.480;9.258;2023-04-24T08:33:19;5.43;;;1.20;;
41755;SDS011;27435;48.480;9.258;2023-04-24T08:35:45;1.93;;;0.90;;
41755;SDS011;27435;48.480;9.258;2023-04-24T08:38:11;2.10;;;1.10;;
41755;SDS011;27435;48.480;9.258;2023-04-24T08:40:36;3.23;;;1.43;;
41755;SDS011;27435;48.480;9.258;2023-04-24T08:43:03;3.13;;;1.20;;
41755;SDS011;27435;48.480;9.258;2023-04-24T08:45:29;2.03;;;1.07;;
41755;SDS011;27435;48.480;9.258;2023-04-24T08:47:55;4.97;;;1.43;;
41755;SDS011;27435;48.480;9.258;2023-04-24T08:50:22;4.53;;;1.57;;
41755;SDS011;27435;48.480;9.258;2023-04-24T08:52:51;3.73;;;1.60;;
41755;SDS011;27435;48.480;9.258;2023-04-24T08:55:21;2.83;;;1.20;;
41755;SDS011;27435;48.480;9.258;2023-04-24T08:57:50;4.40;;;1.30;;
41755;SDS011;27435;48.480;9.258;2023-04-24T09:00:18;1.90;;;1.17;;
41755;SDS011;27435;48.480;9.258;2023-04-24T09:02:48;5.20;;;1.10;;
41755;SDS011;27435;48.480;9.258;2023-04-24T09:05:16;4.87;;;1.33;;
41755;SDS011;27435;48.480;9.258;2023-04-24T09:07:44;5.00;;;1.30;;
41755;SDS011;27435;48.480;9.258;2023-04-24T09:10:11;4.40;;;1.13;;
41755;SDS011;27435;48.480;9.258;2023-04-24T09:12:37;2.60;;;0.90;;
41755;SDS011;27435;48.480;9.258;2023-04-24T09:15:03;2.03;;;0.73;;
41755;SDS011;27435;48.480;9.258;2023-04-24T09:17:32;2.60;;;1.23;;
41755;SDS011;27435;48.480;9.258;2023-04-24T09:19:59;2.70;;;1.20;;
41755;SDS011;27435;48.480;9.258;2023-04-24T09:22:24;2.93;;;0.90;;
41755;SDS011;27435;48.480;9.258;2023-04-24T09:25:03;4.77;;;1.17;;
41755;SDS011;27435;48.480;9.258;2023-04-24T09:27:31;5.53;;;0.83;;
41755;SDS011;27435;48.480;9.258;2023-04-24T09:29:58;2.10;;;1.00;;
41755;SDS011;27435;48.480;9.258;2023-04-24T09:32:24;2.13;;;1.30;;
41755;SDS011;27435;48.480;9.258;2023-04-24T09:35:04;3.30;;;1.27;;
41755;SDS011;27435;48.480;9.258;2023-04-24T09:37:44;3.30;;;1.10;;
41755;SDS011;27435;48.480;9.258;2023-04-24T09:40:14;2.43;;;0.90;;
41755;SDS011;27435;48.480;9.258;2023-04-24T09:42:54;3.57;;;1.30;;
41755;SDS011;27435;48.480;9.258;2023-04-24T09:45:21;1.83;;;1.10;;
41755;SDS011;27435;48.480;9.258;2023-04-24T09:47:51;3.87;;;0.93;;
41755;SDS011;27435;48.480;9.258;2023-04-24T09:50:19;2.13;;;1.07;;
41755;SDS011;27435;48.480;9.258;2023-04-24T09:52:47;3.63;;;0.93;;
41755;SDS011;27435;48.480;9.258;2023-04-24T09:55:44;2.75;;;0.82;;
41755;SDS011;27435;48.480;9.258;2023-04-24T09:58:15;2.07;;;0.83;;
41755;SDS011;27435;48.480;9.258;2023-04-24T10:00:40;1.93;;;1.00;;
41755;SDS011;27435;48.480;9.258;2023-04-24T10:03:06;2.53;;;0.93;;
41755;SDS011;27435;48.480;9.258;2023-04-24T10:05:34;5.90;;;0.90;;
41755;SDS011;27435;48.480;9.258;2023-04-24T10:10:30;3.60;;;0.90;;
41755;SDS011;27435;48.480;9.258;2023-04-24T10:12:57;3.57;;;1.57;;
41755;SDS011;27435;48.480;9.258;2023-04-24T10:15:24;4.43;;;1.50;;
41755;SDS011;27435;48.480;9.258;2023-04-24T10:17:50;3.67;;;1.23;;
41755;SDS011;27435;48.480;9.258;2023-04-24T10:22:47;2.53;;;1.10;;
41755;SDS011;27435;48.480;9.258;2023-04-24T10:25:16;2.73;;;1.30;;
41755;SDS011;27435;48.480;9.258;2023-04-24T10:27:43;2.53;;;0.80;;
41755;SDS011;27435;48.480;9.258;2023-04-24T10:30:11;3.33;;;1.10;;
41755;SDS011;27435;48.480;9.258;2023-04-24T10:32:37;4.17;;;1.77;;
41755;SDS011;27435;48.480;9.258;2023-04-24T10:35:03;2.00;;;1.20;;
41755;SDS011;27435;48.480;9.258;2023-04-24T10:37:34;1.70;;;0.90;;
41755;SDS011;27435;48.480;9.258;2023-04-24T10:40:06;2.40;;;0.90;;
41755;SDS011;27435;48.480;9.258;2023-04-24T10:42:33;2.67;;;0.97;;
41755;SDS011;27435;48.480;9.258;2023-04-24T10:44:59;2.77;;;1.10;;
41755;SDS011;27435;48.480;9.258;2023-04-24T10:47:29;3.70;;;1.03;;
41755;SDS011;27435;48.480;9.258;2023-04-24T10:50:07;2.03;;;0.97;;
41755;SDS011;27435;48.480;9.258;2023-04-24T10:52:47;2.73;;;0.70;;
41755;SDS011;27435;48.480;9.258;2023-04-24T10:55:13;1.97;;;0.70;;
41755;SDS011;27435;48.480;9.258;2023-04-24T10:57:40;2.17;;;0.60;;
41755;SDS011;27435;48.480;9.258;2023-04-24T11:00:27;1.97;;;0.90;;
41755;SDS011;27435;48.480;9.258;2023-04-24T11:02:53;1.33;;;0.57;;
41755;SDS011;27435;48.480;9.258;2023-04-24T11:05:20;1.70;;;0.67;;
41755;SDS011;27435;48.480;9.258;2023-04-24T11:10:40;2.07;;;0.80;;
41755;SDS011;27435;48.480;9.258;2023-04-24T11:13:09;2.07;;;0.70;;
41755;SDS011;27435;48.480;9.258;2023-04-24T11:15:35;2.97;;;0.93;;
41755;SDS011;27435;48.480;9.258;2023-04-24T11:18:01;2.70;;;0.97;;
41755;SDS011;27435;48.480;9.258;2023-04-24T11:20:27;1.80;;;0.70;;
41755;SDS011;27435;48.480;9.258;2023-04-24T11:22:53;1.83;;;0.50;;
41755;SDS011;27435;48.480;9.258;2023-04-24T11:25:20;2.73;;;0.50;;
41755;SDS011;27435;48.480;9.258;2023-04-24T11:27:47;3.97;;;0.80;;
41755;SDS011;27435;48.480;9.258;2023-04-24T11:30:18;1.87;;;0.80;;
41755;SDS011;27435;48.480;9.258;2023-04-24T11:32:48;3.40;;;0.63;;
41755;SDS011;27435;48.480;9.258;2023-04-24T11:37:46;2.93;;;0.70;;
41755;SDS011;27435;48.480;9.258;2023-04-24T11:40:17;1.37;;;0.63;;
41755;SDS011;27435;48.480;9.258;2023-04-24T11:42:48;1.77;;;0.93;;
41755;SDS011;27435;48.480;9.258;2023-04-24T11:45:16;2.37;;;0.70;;
41755;SDS011;27435;48.480;9.258;2023-04-24T11:47:44;2.13;;;0.60;;
41755;SDS011;27435;48.480;9.258;2023-04-24T11:50:11;1.27;;;0.60;;
41755;SDS011;27435;48.480;9.258;2023-04-24T11:52:42;3.90;;;1.13;;
41755;SDS011;27435;48.480;9.258;2023-04-24T11:57:44;4.93;;;0.87;;
41755;SDS011;27435;48.480;9.258;2023-04-24T12:00:18;3.50;;;0.93;;
41755;SDS011;27435;48.480;9.258;2023-04-24T12:02:46;1.20;;;0.50;;
41755;SDS011;27435;48.480;9.258;2023-04-24T12:05:25;1.63;;;0.60;;
41755;SDS011;27435;48.480;9.258;2023-04-24T12:07:52;2.00;;;0.80;;
41755;SDS011;27435;48.480;9.258;2023-04-24T12:10:22;2.63;;;0.60;;
41755;SDS011;27435;48.480;9.258;2023-04-24T12:12:52;2.87;;;0.80;;
41755;SDS011;27435;48.480;9.258;2023-04-24T12:15:21;1.93;;;0.73;;
41755;SDS011;27435;48.480;9.258;2023-04-24T12:17:47;1.43;;;0.50;;
41755;SDS011;27435;48.480;9.258;2023-04-24T12:20:15;1.50;;;0.70;;
41755;SDS011;27435;48.480;9.258;2023-04-24T12:22:54;1.80;;;0.87;;
41755;SDS011;27435;48.480;9.258;2023-04-24T12:25:31;1.97;;;0.83;;
41755;SDS011;27435;48.480;9.258;2023-04-24T12:30:29;4.63;;;0.80;;
41755;SDS011;27435;48.480;9.258;2023-04-24T12:32:57;2.73;;;0.80;;
41755;SDS011;27435;48.480;9.258;2023-04-24T12:35:24;1.60;;;0.60;;
41755;SDS011;27435;48.480;9.258;2023-04-24T12:37:52;1.37;;;0.50;;
41755;SDS011;27435;48.480;9.258;2023-04-24T12:40:18;1.30;;;0.50;;
41755;SDS011;27435;48.480;9.258;2023-04-24T12:42:48;1.13;;;0.60;;
41755;SDS011;27435;48.480;9.258;2023-04-24T12:45:15;2.07;;;0.70;;
41755;SDS011;27435;48.480;9.258;2023-04-24T12:47:42;1.27;;;0.63;;
41755;SDS011;27435;48.480;9.258;2023-04-24T12:50:09;3.50;;;1.33;;
41755;SDS011;27435;48.480;9.258;2023-04-24T12:52:36;3.77;;;1.00;;
41755;SDS011;27435;48.480;9.258;2023-04-24T12:55:02;3.27;;;0.60;;
41755;SDS011;27435;48.480;9.258;2023-04-24T12:57:29;1.37;;;0.60;;
41755;SDS011;27435;48.480;9.258;2023-04-24T12:59:57;2.40;;;0.67;;
41755;SDS011;27435;48.480;9.258;2023-04-24T13:02:32;2.33;;;0.60;;
41755;SDS011;27435;48.480;9.258;2023-04-24T13:04:59;2.05;;;1.17;;
41755;SDS011;27435;48.480;9.258;2023-04-24T13:07:25;2.47;;;0.70;;
41755;SDS011;27435;48.480;9.258;2023-04-24T13:09:51;1.67;;;0.80;;
41755;SDS011;27435;48.480;9.258;2023-04-24T13:12:17;2.80;;;0.80;;
41755;SDS011;27435;48.480;9.258;2023-04-24T13:14:43;2.23;;;0.80;;
41755;SDS011;27435;48.480;9.258;2023-04-24T13:17:10;2.27;;;1.30;;
41755;SDS011;27435;48.480;9.258;2023-04-24T13:19:38;1.90;;;0.73;;
41755;SDS011;27435;48.480;9.258;2023-04-24T13:22:05;1.77;;;0.80;;
41755;SDS011;27435;48.480;9.258;2023-04-24T13:24:32;3.00;;;0.90;;
41755;SDS011;27435;48.480;9.258;2023-04-24T13:26:58;4.43;;;1.00;;
41755;SDS011;27435;48.480;9.258;2023-04-24T13:29:25;2.57;;;1.00;;
41755;SDS011;27435;48.480;9.258;2023-04-24T13:31:51;3.40;;;1.10;;
41755;SDS011;27435;48.480;9.258;2023-04-24T13:34:19;2.83;;;0.87;;
41755;SDS011;27435;48.480;9.258;2023-04-24T13:36:45;2.33;;;0.90;;
41755;SDS011;27435;48.480;9.258;2023-04-24T13:39:11;3.30;;;1.67;;
41755;SDS011;27435;48.480;9.258;2023-04-24T13:41:37;1.70;;;0.77;;
41755;SDS011;27435;48.480;9.258;2023-04-24T13:44:03;1.70;;;0.90;;
41755;SDS011;27435;48.480;9.258;2023-04-24T13:46:29;2.40;;;0.80;;
41755;SDS011;27435;48.480;9.258;2023-04-24T13:48:56;1.87;;;0.83;;
41755;SDS011;27435;48.480;9.258;2023-04-24T13:51:23;1.37;;;0.50;;
41755;SDS011;27435;48.480;9.258;2023-04-24T13:53:52;1.40;;;0.87;;
41755;SDS011;27435;48.480;9.258;2023-04-24T13:56:18;3.37;;;0.90;;
41755;SDS011;27435;48.480;9.258;2023-04-24T13:58:45;2.63;;;1.07;;
41755;SDS011;27435;48.480;9.258;2023-04-24T14:01:11;2.97;;;1.10;;
41755;SDS011;27435;48.480;9.258;2023-04-24T14:03:37;1.60;;;0.90;;
41755;SDS011;27435;48.480;9.258;2023-04-24T14:06:03;2.27;;;1.00;;
41755;SDS011;27435;48.480;9.258;2023-04-24T14:08:28;2.40;;;1.10;;
41755;SDS011;27435;48.480;9.258;2023-04-24T14:10:54;2.60;;;1.10;;
41755;SDS011;27435;48.480;9.258;2023-04-24T14:13:19;3.30;;;1.10;;
41755;SDS011;27435;48.480;9.258;2023-04-24T14:15:45;2.97;;;0.97;;
41755;SDS011;27435;48.480;9.258;2023-04-24T14:18:11;3.00;;;1.10;;
41755;SDS011;27435;48.480;9.258;2023-04-24T14:20:37;2.30;;;1.03;;
41755;SDS011;27435;48.480;9.258;2023-04-24T14:23:03;3.93;;;1.00;;
41755;SDS011;27435;48.480;9.258;2023-04-24T14:25:29;1.80;;;0.83;;
41755;SDS011;27435;48.480;9.258;2023-04-24T14:27:55;1.67;;;0.90;;
41755;SDS011;27435;48.480;9.258;2023-04-24T14:30:20;3.77;;;0.93;;
41755;SDS011;27435;48.480;9.258;2023-04-24T14:32:46;2.03;;;0.90;;
41755;SDS011;27435;48.480;9.258;2023-04-24T14:35:13;1.43;;;0.87;;
41755;SDS011;27435;48.480;9.258;2023-04-24T14:37:39;1.93;;;0.83;;
41755;SDS011;27435;48.480;9.258;2023-04-24T14:40:07;2.77;;;0.63;;
41755;SDS011;27435;48.480;9.258;2023-04-24T14:42:34;3.80;;;1.00;;
41755;SDS011;27435;48.480;9.258;2023-04-24T14:45:00;3.60;;;1.27;;
41755;SDS011;27435;48.480;9.258;2023-04-24T14:47:26;4.37;;;0.90;;
41755;SDS011;27435;48.480;9.258;2023-04-24T14:49:52;2.23;;;1.10;;
41755;SDS011;27435;48.480;9.258;2023-04-24T14:52:18;3.50;;;1.50;;
41755;SDS011;27435;48.480;9.258;2023-04-24T14:54:44;2.20;;;0.93;;
41755;SDS011;27435;48.480;9.258;2023-04-24T14:57:10;2.00;;;0.80;;
41755;SDS011;27435;48.480;9.258;2023-04-24T14:59:36;1.90;;;0.93;;
41755;SDS011;27435;48.480;9.258;2023-04-24T15:02:01;3.37;;;1.07;;